createdAt,value
2023-04-18T00:01:45.804Z,26.60
2023-04-18T00:04:14.159Z,24.75
2023-04-18T00:06:41.242Z,26.00
2023-04-18T00:09:08.102Z,27.75
2023-04-18T00:11:35.225Z,25.53
2023-04-18T00:14:03.468Z,26.00
2023-04-18T00:16:30.667Z,23.48
2023-04-18T00:18:57.616Z,25.30
2023-04-18T00:21:25.790Z,25.70
2023-04-18T00:23:52.793Z,26.00
2023-04-18T00:26:19.704Z,27.40
2023-04-18T00:28:46.490Z,25.92
2023-04-18T00:31:13.390Z,24.70
2023-04-18T00:33:40.487Z,26.65
2023-04-18T00:36:07.476Z,26.53
2023-04-18T00:38:34.269Z,27.17
2023-04-18T00:41:01.073Z,30.35
2023-04-18T00:43:28.261Z,27.52
2023-04-18T00:45:57.227Z,28.38
2023-04-18T00:48:24.097Z,25.77
2023-04-18T00:50:50.901Z,28.80
2023-04-18T00:53:17.673Z,31.55
2023-04-18T00:55:44.460Z,29.45
2023-04-18T00:58:11.596Z,30.17
2023-04-18T01:00:38.401Z,26.47
2023-04-18T01:03:06.858Z,28.63
2023-04-18T01:05:35.206Z,27.52
2023-04-18T01:08:02.551Z,29.90
2023-04-18T01:10:29.980Z,31.58
2023-04-18T01:13:16.095Z,31.27
2023-04-18T01:15:43.859Z,30.45
2023-04-18T01:18:11.801Z,32.30
2023-04-18T01:20:41.496Z,27.95
2023-04-18T01:23:10.457Z,30.33
2023-04-18T01:25:37.515Z,29.07
2023-04-18T01:28:05.086Z,28.05
2023-04-18T01:30:33.028Z,27.80
2023-04-18T01:33:04.074Z,27.73
2023-04-18T01:35:31.483Z,28.15
2023-04-18T01:37:58.466Z,26.90
2023-04-18T01:40:25.407Z,32.75
2023-04-18T01:42:52.276Z,31.98
2023-04-18T01:45:19.740Z,29.95
2023-04-18T01:47:47.015Z,28.02
2023-04-18T01:50:13.990Z,32.30
2023-04-18T01:52:41.396Z,30.80
2023-04-18T01:55:08.636Z,31.13
2023-04-18T01:57:36.891Z,26.50
2023-04-18T02:00:06.773Z,29.23
2023-04-18T02:02:34.181Z,28.37
2023-04-18T02:05:01.293Z,27.52
2023-04-18T02:07:28.101Z,29.48
2023-04-18T02:09:55.179Z,29.85
2023-04-18T02:12:22.019Z,29.33
2023-04-18T02:14:51.832Z,31.40
2023-04-18T02:17:19.567Z,30.55
2023-04-18T02:19:46.716Z,33.22
2023-04-18T02:22:13.523Z,28.30
2023-04-18T02:24:40.332Z,25.85
2023-04-18T02:27:07.110Z,27.87
2023-04-18T02:29:34.047Z,32.25
2023-04-18T02:32:01.087Z,28.73
2023-04-18T02:34:27.894Z,28.23
2023-04-18T02:36:54.690Z,30.63
2023-04-18T02:39:21.600Z,30.80
2023-04-18T02:41:48.476Z,28.55
2023-04-18T02:44:15.487Z,27.95
2023-04-18T02:46:42.373Z,27.38
2023-04-18T02:49:09.171Z,31.92
2023-04-18T02:51:36.017Z,30.40
2023-04-18T02:54:02.915Z,31.55
2023-04-18T02:56:29.746Z,28.98
2023-04-18T02:58:56.667Z,29.73
2023-04-18T03:01:23.485Z,29.17
2023-04-18T03:03:50.450Z,29.10
2023-04-18T03:06:17.232Z,33.08
2023-04-18T03:08:44.056Z,27.38
2023-04-18T03:11:10.865Z,30.63
2023-04-18T03:13:37.660Z,30.20
2023-04-18T03:16:04.925Z,29.83
2023-04-18T03:18:31.751Z,28.00
2023-04-18T03:20:58.602Z,29.58
2023-04-18T03:23:25.377Z,30.58
2023-04-18T03:25:52.109Z,31.67
2023-04-18T03:28:18.897Z,31.07
2023-04-18T03:30:45.731Z,27.88
2023-04-18T03:33:14.498Z,29.20
2023-04-18T03:35:41.360Z,29.13
2023-04-18T03:38:08.098Z,28.98
2023-04-18T03:40:34.891Z,28.53
2023-04-18T03:43:01.733Z,27.92
2023-04-18T03:45:28.643Z,28.83
2023-04-18T03:47:55.500Z,30.33
2023-04-18T03:50:22.294Z,28.70
2023-04-18T03:52:49.085Z,29.43
2023-04-18T03:55:15.983Z,28.33
2023-04-18T03:57:42.753Z,27.92
2023-04-18T04:00:10.484Z,27.67
2023-04-18T04:02:37.387Z,30.98
2023-04-18T04:05:05.193Z,27.87
2023-04-18T04:07:32.260Z,29.25
2023-04-18T04:09:59.036Z,30.63
2023-04-18T04:12:25.885Z,31.48
2023-04-18T04:14:52.729Z,31.08
2023-04-18T04:17:19.576Z,28.97
2023-04-18T04:19:46.417Z,28.20
2023-04-18T04:22:13.576Z,30.65
2023-04-18T04:24:40.537Z,28.65
2023-04-18T04:27:08.186Z,30.95
2023-04-18T04:29:36.187Z,29.47
2023-04-18T04:32:05.748Z,28.60
2023-04-18T04:34:34.507Z,29.65
2023-04-18T04:37:01.588Z,30.77
2023-04-18T04:39:28.390Z,29.52
2023-04-18T04:41:55.523Z,26.50
2023-04-18T04:44:26.077Z,29.20
2023-04-18T04:46:54.604Z,28.77
2023-04-18T04:49:22.087Z,26.65
2023-04-18T04:51:49.082Z,28.30
2023-04-18T04:54:16.301Z,27.03
2023-04-18T04:56:43.316Z,26.92
2023-04-18T04:59:10.104Z,27.35
2023-04-18T05:01:45.286Z,26.98
2023-04-18T05:04:12.880Z,26.10
2023-04-18T05:06:40.354Z,25.00
2023-04-18T05:09:07.292Z,24.50
2023-04-18T05:11:34.054Z,24.13
2023-04-18T05:14:00.839Z,22.35
2023-04-18T05:16:27.645Z,22.60
2023-04-18T05:18:54.511Z,20.73
2023-04-18T05:21:21.270Z,22.00
2023-04-18T05:23:48.047Z,20.20
2023-04-18T05:26:14.938Z,22.58
2023-04-18T05:28:41.813Z,20.40
2023-04-18T05:31:08.674Z,20.53
2023-04-18T05:33:35.689Z,19.08
2023-04-18T05:36:02.710Z,18.95
2023-04-18T05:38:29.568Z,18.00
2023-04-18T05:40:57.179Z,18.58
2023-04-18T05:43:24.012Z,17.33
2023-04-18T05:45:52.749Z,20.10
2023-04-18T05:48:19.771Z,17.35
2023-04-18T05:50:46.535Z,17.05
2023-04-18T05:53:13.302Z,16.70
2023-04-18T05:55:41.118Z,16.77
2023-04-18T05:58:08.036Z,15.75
2023-04-18T06:00:35.084Z,15.85
2023-04-18T06:03:02.158Z,15.85
2023-04-18T06:05:29.522Z,14.88
2023-04-18T06:07:56.481Z,14.70
2023-04-18T06:10:23.276Z,17.83
2023-04-18T06:12:50.098Z,15.60
2023-04-18T06:15:16.941Z,14.35
2023-04-18T06:17:44.739Z,14.82
2023-04-18T06:20:11.786Z,15.97
2023-04-18T06:22:38.586Z,16.63
2023-04-18T06:25:05.887Z,13.98
2023-04-18T06:27:32.736Z,15.18
2023-04-18T06:29:59.500Z,13.18
2023-04-18T06:32:26.609Z,13.47
2023-04-18T06:34:53.613Z,13.75
2023-04-18T06:37:20.564Z,12.02
2023-04-18T06:39:47.407Z,13.48
2023-04-18T06:42:14.193Z,13.68
2023-04-18T06:44:43.082Z,12.27
2023-04-18T06:47:10.049Z,13.10
2023-04-18T06:49:37.240Z,15.00
2023-04-18T06:52:04.072Z,14.75
2023-04-18T06:54:30.903Z,40.08
2023-04-18T06:56:57.695Z,31.37
2023-04-18T06:59:24.497Z,29.48
2023-04-18T07:01:51.494Z,23.08
2023-04-18T07:04:18.834Z,19.95
2023-04-18T07:06:45.879Z,21.73
2023-04-18T07:09:12.783Z,21.30
2023-04-18T07:11:40.918Z,19.48
2023-04-18T07:14:07.836Z,18.25
2023-04-18T07:16:34.837Z,15.90
2023-04-18T07:19:01.662Z,17.27
2023-04-18T07:21:28.494Z,17.70
2023-04-18T07:23:55.440Z,15.73
2023-04-18T07:26:22.351Z,15.63
2023-04-18T07:28:49.303Z,14.52
2023-04-18T07:31:16.661Z,15.73
2023-04-18T07:33:43.789Z,12.13
2023-04-18T07:36:10.959Z,12.27
2023-04-18T07:38:37.844Z,12.75
2023-04-18T07:41:04.694Z,12.50
2023-04-18T07:43:31.668Z,10.80
2023-04-18T07:45:58.682Z,12.50
2023-04-18T07:48:26.025Z,13.45
2023-04-18T07:50:53.497Z,12.95
2023-04-18T07:53:20.315Z,17.10
2023-04-18T07:55:47.134Z,13.13
2023-04-18T07:58:14.102Z,15.67
2023-04-18T08:00:42.708Z,17.00
2023-04-18T08:03:13.015Z,14.38
2023-04-18T08:05:40.991Z,15.05
2023-04-18T08:08:08.792Z,13.05
2023-04-18T08:10:35.930Z,13.47
2023-04-18T08:13:03.031Z,14.02
2023-04-18T08:15:32.302Z,17.92
2023-04-18T08:17:59.736Z,18.40
2023-04-18T08:20:26.688Z,19.70
2023-04-18T08:23:05.647Z,17.83
2023-04-18T08:25:33.633Z,24.95
2023-04-18T08:28:00.521Z,24.05
2023-04-18T08:30:27.499Z,20.00
2023-04-18T08:32:54.372Z,28.00
2023-04-18T08:35:21.393Z,17.27
2023-04-18T08:37:48.284Z,14.98
2023-04-18T08:40:15.058Z,15.65
2023-04-18T08:42:43.410Z,15.50
2023-04-18T08:45:12.418Z,14.40
2023-04-18T08:47:39.218Z,15.13
2023-04-18T08:50:06.869Z,13.45
2023-04-18T08:52:34.428Z,12.52
2023-04-18T08:55:02.789Z,11.25
2023-04-18T08:57:31.137Z,10.55
2023-04-18T09:00:00.801Z,10.40
2023-04-18T09:02:43.919Z,9.40
2023-04-18T09:05:11.856Z,11.45
2023-04-18T09:07:38.647Z,9.82
2023-04-18T09:10:05.790Z,8.77
2023-04-18T09:12:34.619Z,9.77
2023-04-18T09:15:11.318Z,9.05
2023-04-18T09:17:41.810Z,9.05
2023-04-18T09:20:12.337Z,7.72
2023-04-18T09:22:48.611Z,7.43
2023-04-18T09:25:53.376Z,8.90
2023-04-18T09:28:23.847Z,9.00
2023-04-18T09:30:54.432Z,8.95
2023-04-18T09:33:28.687Z,7.85
2023-04-18T09:35:56.769Z,8.65
2023-04-18T09:38:39.617Z,9.43
2023-04-18T09:41:10.356Z,9.52
2023-04-18T09:43:37.249Z,7.82
2023-04-18T09:46:04.338Z,9.68
2023-04-18T09:48:31.389Z,8.93
2023-04-18T09:51:09.593Z,9.40
2023-04-18T09:53:40.071Z,8.27
2023-04-18T09:56:08.556Z,10.02
2023-04-18T09:58:35.809Z,10.88
2023-04-18T10:01:02.606Z,9.73
2023-04-18T10:03:34.825Z,9.87
2023-04-18T10:06:01.861Z,9.85
2023-04-18T10:08:28.748Z,8.52
2023-04-18T10:10:57.948Z,21.38
2023-04-18T10:13:26.329Z,15.13
2023-04-18T10:15:53.497Z,17.83
2023-04-18T10:18:23.207Z,15.50
2023-04-18T10:20:50.536Z,12.77
2023-04-18T10:23:36.572Z,38.70
2023-04-18T10:26:04.515Z,29.02
2023-04-18T10:28:53.789Z,13.87
2023-04-18T10:31:28.182Z,14.82
2023-04-18T10:34:04.772Z,14.27
2023-04-18T10:36:33.107Z,9.68
2023-04-18T10:39:21.532Z,18.73
2023-04-18T10:41:50.608Z,68.13
2023-04-18T10:44:19.466Z,36.28
2023-04-18T10:46:52.217Z,14.30
2023-04-18T10:49:25.214Z,70.43
2023-04-18T10:52:00.098Z,430.30
2023-04-18T10:54:37.836Z,464.73
2023-04-18T10:57:05.515Z,334.00
2023-04-18T10:59:33.126Z,126.68
2023-04-18T11:02:20.809Z,366.48
2023-04-18T11:04:51.866Z,285.88
2023-04-18T11:07:18.710Z,116.03
2023-04-18T11:09:55.371Z,30.98
2023-04-18T11:12:22.739Z,16.95
2023-04-18T11:14:55.376Z,124.47
2023-04-18T11:17:23.972Z,30.13
2023-04-18T11:19:51.798Z,33.77
2023-04-18T11:22:20.080Z,18.05
2023-04-18T11:24:46.912Z,26.30
2023-04-18T11:27:14.059Z,27.63
2023-04-18T11:29:40.964Z,22.02
2023-04-18T11:32:08.686Z,18.77
2023-04-18T11:34:36.041Z,41.72
2023-04-18T11:37:06.472Z,28.27
2023-04-18T11:39:42.465Z,59.40
2023-04-18T11:42:09.642Z,55.70
2023-04-18T11:44:40.732Z,50.77
2023-04-18T11:47:22.833Z,47.88
2023-04-18T11:49:58.393Z,27.60
2023-04-18T11:52:26.997Z,40.38
2023-04-18T11:54:53.854Z,56.15
2023-04-18T11:57:27.830Z,21.63
2023-04-18T11:59:59.346Z,53.53
2023-04-18T12:02:27.574Z,55.55
2023-04-18T12:04:56.420Z,71.95
2023-04-18T12:07:42.803Z,95.47
2023-04-18T12:10:30.946Z,33.83
2023-04-18T12:13:01.235Z,56.63
2023-04-18T12:15:28.884Z,160.68
2023-04-18T12:18:03.232Z,67.45
2023-04-18T12:20:46.013Z,145.18
2023-04-18T12:23:31.346Z,57.87
2023-04-18T12:26:14.807Z,48.60
2023-04-18T12:28:44.463Z,30.73
2023-04-18T12:31:11.516Z,16.95
2023-04-18T12:33:38.358Z,14.70
2023-04-18T12:36:06.203Z,509.40
2023-04-18T12:38:33.009Z,968.95
2023-04-18T12:40:59.809Z,845.80
2023-04-18T12:43:28.212Z,909.38
2023-04-18T12:45:55.395Z,874.92
2023-04-18T12:48:22.645Z,1134.60
2023-04-18T12:50:49.508Z,1387.40
2023-04-18T12:53:16.287Z,1192.07
2023-04-18T12:55:43.137Z,1332.68
2023-04-18T12:58:09.944Z,886.72
2023-04-18T13:00:37.453Z,611.77
2023-04-18T13:03:04.771Z,328.90
2023-04-18T13:05:34.095Z,135.70
2023-04-18T13:10:31.617Z,50.50
2023-04-18T13:12:58.430Z,31.77
2023-04-18T13:15:26.192Z,18.63
2023-04-18T13:17:53.248Z,15.65
2023-04-18T13:20:20.163Z,11.93
2023-04-18T13:22:47.086Z,12.27
2023-04-18T13:25:13.845Z,14.87
2023-04-18T13:27:41.895Z,12.20
2023-04-18T13:30:10.849Z,13.32
2023-04-18T13:32:39.312Z,11.60
2023-04-18T13:35:08.445Z,11.65
2023-04-18T13:37:35.722Z,11.13
2023-04-18T13:40:05.487Z,11.48
2023-04-18T13:45:20.846Z,13.55
2023-04-18T13:47:47.662Z,13.35
2023-04-18T13:50:14.581Z,13.57
2023-04-18T13:52:41.529Z,12.18
2023-04-18T13:55:10.594Z,11.85
2023-04-18T13:57:37.460Z,10.38
2023-04-18T14:00:06.650Z,11.50
2023-04-18T14:02:33.658Z,11.17
2023-04-18T14:05:01.342Z,13.10
2023-04-18T14:07:28.216Z,12.10
2023-04-18T14:09:55.029Z,11.57
2023-04-18T14:12:49.372Z,11.93
2023-04-18T14:18:44.434Z,10.63
2023-04-18T14:21:11.217Z,12.05
2023-04-18T14:23:38.016Z,10.77
2023-04-18T14:26:05.609Z,11.20
2023-04-18T14:28:32.394Z,11.47
2023-04-18T14:31:02.126Z,13.77
2023-04-18T14:33:29.422Z,20.45
2023-04-18T14:35:56.481Z,17.45
2023-04-18T14:38:23.282Z,14.88
2023-04-18T14:40:50.120Z,16.20
2023-04-18T14:43:17.019Z,15.20
2023-04-18T14:45:43.825Z,34.33
2023-04-18T14:48:10.662Z,41.17
2023-04-18T14:50:38.722Z,33.20
2023-04-18T14:53:06.221Z,28.90
2023-04-18T14:55:33.988Z,23.15
2023-04-18T14:58:01.314Z,20.42
2023-04-18T15:00:28.999Z,19.13
2023-04-18T15:02:56.163Z,16.52
2023-04-18T15:05:26.634Z,13.33
2023-04-18T15:07:53.573Z,14.23
2023-04-18T15:10:22.485Z,12.55
2023-04-18T15:12:51.206Z,13.43
2023-04-18T15:15:19.522Z,12.68
2023-04-18T15:17:46.484Z,12.47
2023-04-18T15:20:13.377Z,12.40
2023-04-18T15:22:40.208Z,14.27
2023-04-18T15:25:07.797Z,11.95
2023-04-18T15:27:34.716Z,10.77
2023-04-18T15:30:02.434Z,10.77
2023-04-18T15:32:29.341Z,12.32
2023-04-18T15:34:56.346Z,14.18
2023-04-18T15:37:23.722Z,11.60
2023-04-18T15:39:50.649Z,11.25
2023-04-18T15:42:17.519Z,9.53
2023-04-18T15:44:44.438Z,65.30
2023-04-18T15:47:11.402Z,149.63
2023-04-18T15:49:38.402Z,136.63
2023-04-18T15:52:06.945Z,270.52
2023-04-18T15:54:33.937Z,254.80
2023-04-18T15:57:00.802Z,208.02
2023-04-18T15:59:27.939Z,186.13
2023-04-18T16:01:54.880Z,163.93
2023-04-18T16:04:21.964Z,139.13
2023-04-18T16:06:48.756Z,170.67
2023-04-18T16:09:16.376Z,748.47
2023-04-18T16:11:43.140Z,878.58
2023-04-18T16:14:09.942Z,814.88
2023-04-18T16:16:36.800Z,783.92
2023-04-18T16:19:04.585Z,952.20
2023-04-18T16:21:32.590Z,1041.95
2023-04-18T16:23:59.936Z,980.92
2023-04-18T16:26:26.773Z,848.70
2023-04-18T16:28:53.617Z,726.03
2023-04-18T16:31:20.554Z,602.03
2023-04-18T16:33:47.467Z,530.53
2023-04-18T16:36:14.517Z,422.15
2023-04-18T16:38:41.515Z,348.00
2023-04-18T16:41:08.333Z,288.65
2023-04-18T16:43:38.211Z,238.63
2023-04-18T16:46:05.323Z,195.13
2023-04-18T16:48:32.227Z,159.13
2023-04-18T16:50:59.122Z,136.18
2023-04-18T16:53:26.020Z,101.72
2023-04-18T16:55:55.987Z,92.90
2023-04-18T16:58:23.731Z,71.47
2023-04-18T17:00:50.584Z,56.35
2023-04-18T17:03:17.540Z,50.90
2023-04-18T17:05:44.728Z,39.58
2023-04-18T17:08:11.655Z,34.23
2023-04-18T17:10:38.481Z,31.48
2023-04-18T17:13:05.296Z,25.38
2023-04-18T17:15:32.158Z,25.08
2023-04-18T17:18:01.186Z,21.80
2023-04-18T17:20:28.518Z,15.53
2023-04-18T17:22:55.644Z,17.98
2023-04-18T17:25:22.531Z,15.45
2023-04-18T17:27:49.396Z,13.82
2023-04-18T17:30:16.295Z,14.23
2023-04-18T17:32:46.141Z,14.33
2023-04-18T17:35:14.755Z,13.23
2023-04-18T17:37:42.543Z,15.25
2023-04-18T17:40:10.248Z,13.05
2023-04-18T17:42:37.139Z,14.32
2023-04-18T17:45:05.382Z,12.97
2023-04-18T17:47:33.594Z,13.98
2023-04-18T17:50:00.923Z,15.38
2023-04-18T17:52:30.737Z,11.85
2023-04-18T17:54:58.658Z,15.75
2023-04-18T17:57:26.733Z,11.33
2023-04-18T17:59:53.636Z,12.15
2023-04-18T18:02:20.541Z,18.08
2023-04-18T18:04:47.698Z,13.63
2023-04-18T18:07:14.619Z,13.23
2023-04-18T18:09:45.612Z,14.37
2023-04-18T18:12:12.499Z,13.82
2023-04-18T18:14:40.612Z,15.00
2023-04-18T18:17:07.572Z,10.52
2023-04-18T18:19:37.561Z,12.60
2023-04-18T18:22:04.359Z,12.27
2023-04-18T18:24:31.283Z,15.15
2023-04-18T18:26:59.035Z,13.38
2023-04-18T18:29:26.165Z,10.63
2023-04-18T18:31:53.026Z,10.82
2023-04-18T18:34:21.261Z,11.87
2023-04-18T18:36:48.086Z,11.23
2023-04-18T18:39:16.551Z,14.50
2023-04-18T18:41:43.506Z,10.13
2023-04-18T18:44:10.494Z,11.45
2023-04-18T18:46:37.423Z,8.70
2023-04-18T18:49:04.221Z,12.63
2023-04-18T18:51:31.069Z,9.77
2023-04-18T18:53:58.046Z,9.95
2023-04-18T18:56:24.838Z,10.60
2023-04-18T18:58:53.817Z,13.23
2023-04-18T19:01:21.142Z,12.00
2023-04-18T19:03:48.325Z,8.77
2023-04-18T19:06:15.423Z,12.25
2023-04-18T19:08:42.252Z,11.40
2023-04-18T19:11:09.694Z,12.00
2023-04-18T19:13:36.583Z,12.70
2023-04-18T19:16:03.470Z,14.52
2023-04-18T19:18:30.421Z,10.65
2023-04-18T19:20:57.317Z,9.13
2023-04-18T19:23:25.318Z,9.97
2023-04-18T19:25:52.319Z,9.55
2023-04-18T19:28:19.245Z,11.50
2023-04-18T19:30:46.550Z,11.48
2023-04-18T19:33:13.744Z,12.13
2023-04-18T19:35:40.735Z,9.63
2023-04-18T19:38:07.670Z,11.55
2023-04-18T19:40:34.438Z,12.18
2023-04-18T19:43:01.270Z,11.25
2023-04-18T19:45:28.078Z,11.77
2023-04-18T19:47:54.971Z,9.77
2023-04-18T19:50:21.813Z,10.73
2023-04-18T19:52:48.630Z,11.00
2023-04-18T19:55:15.659Z,11.23
2023-04-18T19:57:43.394Z,12.25
2023-04-18T20:00:11.793Z,10.83
2023-04-18T20:02:42.137Z,11.82
2023-04-18T20:05:09.743Z,9.85
2023-04-18T20:07:37.052Z,12.35
2023-04-18T20:10:04.583Z,11.55
2023-04-18T20:12:31.521Z,9.13
2023-04-18T20:14:59.073Z,9.95
2023-04-18T20:17:26.315Z,14.23
2023-04-18T20:19:53.435Z,11.18
2023-04-18T20:22:20.309Z,11.68
2023-04-18T20:24:48.777Z,12.93
2023-04-18T20:27:15.666Z,10.82
2023-04-18T20:29:42.504Z,14.18
2023-04-18T20:32:11.315Z,8.35
2023-04-18T20:34:38.133Z,10.65
2023-04-18T20:37:07.533Z,10.33
2023-04-18T20:39:34.395Z,10.13
2023-04-18T20:42:04.247Z,8.93
2023-04-18T20:44:33.536Z,10.32
2023-04-18T20:47:00.315Z,12.48
2023-04-18T20:49:27.138Z,9.73
2023-04-18T20:51:53.940Z,9.40
2023-04-18T20:54:20.753Z,10.85
2023-04-18T20:56:47.679Z,10.25
2023-04-18T20:59:14.478Z,10.38
2023-04-18T21:01:41.383Z,14.93
2023-04-18T21:04:08.389Z,10.00
2023-04-18T21:06:36.737Z,10.55
2023-04-18T21:09:04.324Z,9.40
2023-04-18T21:11:31.316Z,10.73
2023-04-18T21:13:58.122Z,10.20
2023-04-18T21:16:25.028Z,13.18
2023-04-18T21:18:53.217Z,10.48
2023-04-18T21:21:20.096Z,10.50
2023-04-18T21:23:46.860Z,10.18
2023-04-18T21:26:14.100Z,9.13
2023-04-18T21:29:01.660Z,10.63
2023-04-18T21:31:30.012Z,9.93
2023-04-18T21:33:58.042Z,8.98
2023-04-18T21:36:27.032Z,10.93
2023-04-18T21:38:58.481Z,9.50
2023-04-18T21:41:25.423Z,10.43
2023-04-18T21:43:52.326Z,8.20
2023-04-18T21:46:19.387Z,10.75
2023-04-18T21:48:46.877Z,10.60
2023-04-18T21:51:14.864Z,12.63
2023-04-18T21:53:41.935Z,9.52
2023-04-18T21:56:08.833Z,9.48
2023-04-18T21:58:35.684Z,8.05
2023-04-18T22:01:02.752Z,8.60
2023-04-18T22:03:29.878Z,12.50
2023-04-18T22:05:57.567Z,9.63
2023-04-18T22:08:25.914Z,9.93
2023-04-18T22:10:58.342Z,10.13
2023-04-18T22:13:25.734Z,9.60
2023-04-18T22:15:52.590Z,11.20
2023-04-18T22:18:19.448Z,8.90
2023-04-18T22:20:47.029Z,10.63
2023-04-18T22:23:13.996Z,8.15
2023-04-18T22:25:41.070Z,10.18
2023-04-18T22:28:07.965Z,9.73
2023-04-18T22:30:34.836Z,11.07
2023-04-18T22:33:01.792Z,10.32
2023-04-18T22:35:28.637Z,9.07
2023-04-18T22:37:55.870Z,8.88
2023-04-18T22:40:22.663Z,10.77
2023-04-18T22:42:51.983Z,8.43
2023-04-18T22:45:19.499Z,9.40
2023-04-18T22:47:46.821Z,9.60
2023-04-18T22:50:14.103Z,13.68
2023-04-18T22:52:41.390Z,10.37
2023-04-18T22:55:08.887Z,7.95
2023-04-18T22:57:35.773Z,9.75
2023-04-18T23:00:04.263Z,9.95
2023-04-18T23:02:31.280Z,8.35
2023-04-18T23:04:59.049Z,9.37
2023-04-18T23:07:25.923Z,10.65
2023-04-18T23:09:52.723Z,10.75
2023-04-18T23:12:19.546Z,9.88
2023-04-18T23:14:46.411Z,11.68
2023-04-18T23:17:13.203Z,9.73
2023-04-18T23:19:40.184Z,10.45
2023-04-18T23:22:06.964Z,9.05
2023-04-18T23:24:33.785Z,10.75
2023-04-18T23:27:01.623Z,9.50
2023-04-18T23:29:28.444Z,11.43
2023-04-18T23:31:55.376Z,10.43
2023-04-18T23:34:22.280Z,8.85
2023-04-18T23:36:49.108Z,10.70
2023-04-18T23:39:18.544Z,14.30
2023-04-18T23:41:45.746Z,13.03
2023-04-18T23:44:12.756Z,11.05
2023-04-18T23:46:39.659Z,10.02
2023-04-18T23:49:06.602Z,8.93
2023-04-18T23:51:33.707Z,11.68
2023-04-18T23:54:00.476Z,11.50
2023-04-18T23:56:27.541Z,10.55
2023-04-18T23:58:54.348Z,12.65
